createdAt,value
2018-04-25T00:02:09.741Z,41.50
2018-04-25T00:04:37.609Z,41.30
2018-04-25T00:07:05.469Z,41.50
2018-04-25T00:09:33.302Z,41.30
2018-04-25T00:12:01.165Z,41.30
2018-04-25T00:14:29.062Z,41.40
2018-04-25T00:16:56.924Z,41.40
2018-04-25T00:19:24.789Z,41.30
2018-04-25T00:21:53.474Z,41.20
2018-04-25T00:24:21.461Z,41.20
2018-04-25T00:26:49.309Z,41.20
2018-04-25T00:29:17.132Z,41.30
2018-04-25T00:31:44.930Z,41.10
2018-04-25T00:34:12.795Z,41.30
2018-04-25T00:36:40.664Z,41.10
2018-04-25T00:39:08.522Z,40.90
2018-04-25T00:41:36.387Z,41.00
2018-04-25T00:44:04.257Z,41.10
2018-04-25T00:46:32.117Z,41.00
2018-04-25T00:48:59.982Z,40.90
2018-04-25T00:51:27.908Z,40.80
2018-04-25T00:53:55.707Z,40.90
2018-04-25T00:56:23.676Z,40.80
2018-04-25T00:58:51.538Z,40.80
2018-04-25T01:01:19.402Z,40.60
2018-04-25T01:03:47.368Z,40.70
2018-04-25T01:06:15.244Z,40.60
2018-04-25T01:08:43.098Z,40.70
2018-04-25T01:11:11.065Z,40.70
2018-04-25T01:13:38.928Z,40.60
2018-04-25T01:16:06.793Z,40.70
2018-04-25T01:18:34.655Z,40.60
2018-04-25T01:21:02.520Z,40.80
2018-04-25T01:23:30.389Z,40.60
2018-04-25T01:26:03.796Z,40.50
2018-04-25T01:28:34.204Z,40.40
2018-04-25T01:31:02.069Z,40.40
2018-04-25T01:33:41.495Z,40.40
2018-04-25T01:36:09.368Z,40.50
2018-04-25T01:38:38.159Z,40.20
2018-04-25T01:41:09.906Z,40.30
2018-04-25T01:43:39.716Z,40.30
2018-04-25T01:46:08.399Z,40.20
2018-04-25T02:01:59.382Z,40.60
2018-04-25T02:04:27.207Z,40.50
2018-04-25T02:06:55.006Z,40.60
2018-04-25T02:09:22.870Z,40.60
2018-04-25T02:11:50.737Z,40.40
2018-04-25T02:14:18.598Z,40.40
2018-04-25T02:16:46.462Z,40.20
2018-04-25T02:19:14.325Z,40.30
2018-04-25T02:21:42.190Z,40.30
2018-04-25T02:24:10.872Z,40.20
2018-04-25T02:26:38.739Z,40.20
2018-04-25T02:29:06.604Z,40.20
2018-04-25T02:31:34.469Z,40.10
2018-04-25T02:34:02.332Z,40.10
2018-04-25T02:36:30.092Z,40.30
2018-04-25T02:38:57.956Z,40.30
2018-04-25T02:41:25.821Z,40.30
2018-04-25T02:43:53.685Z,40.30
2018-04-25T02:46:21.554Z,40.40
2018-04-25T02:48:49.413Z,40.20
2018-04-25T02:51:17.283Z,40.10
2018-04-25T02:53:45.104Z,40.10
2018-04-25T02:56:12.903Z,40.00
2018-04-25T02:58:40.767Z,40.00
2018-04-25T03:01:08.632Z,40.00
2018-04-25T03:03:36.503Z,39.90
2018-04-25T03:06:04.361Z,39.70
2018-04-25T03:08:32.328Z,39.60
2018-04-25T03:11:00.190Z,39.40
2018-04-25T03:13:28.057Z,39.50
2018-04-25T03:15:55.918Z,39.80
2018-04-25T03:18:23.785Z,39.70
2018-04-25T03:20:51.647Z,39.80
2018-04-25T03:23:19.513Z,40.00
2018-04-25T03:25:47.376Z,40.00
2018-04-25T03:28:15.241Z,40.10
2018-04-25T03:30:43.068Z,39.90
2018-04-25T03:33:10.868Z,40.00
2018-04-25T03:35:38.735Z,40.00
2018-04-25T03:38:06.597Z,39.80
2018-04-25T03:40:34.457Z,40.10
2018-04-25T03:43:02.324Z,40.00
2018-04-25T03:45:30.187Z,40.00
2018-04-25T03:47:58.053Z,40.00
2018-04-25T03:50:25.918Z,40.40
2018-04-25T03:52:53.782Z,40.00
2018-04-25T03:55:21.645Z,40.00
2018-04-25T03:57:49.510Z,40.10
2018-04-25T04:00:17.371Z,40.00
2018-04-25T04:02:45.241Z,40.00
2018-04-25T04:05:13.073Z,39.60
2018-04-25T04:07:40.965Z,39.50
2018-04-25T04:10:08.834Z,39.40
2018-04-25T04:12:36.702Z,39.50
2018-04-25T04:15:04.557Z,39.50
2018-04-25T04:17:32.421Z,39.50
2018-04-25T04:20:00.283Z,39.20
2018-04-25T04:22:28.147Z,39.50
2018-04-25T04:24:56.098Z,39.30
2018-04-25T04:27:23.876Z,39.20
2018-04-25T04:29:51.741Z,39.10
2018-04-25T04:32:19.606Z,39.10
2018-04-25T04:34:47.471Z,39.40
2018-04-25T04:37:15.335Z,38.60
2018-04-25T04:39:43.203Z,38.70
2018-04-25T04:42:11.029Z,38.90
2018-04-25T04:44:38.928Z,38.70
2018-04-25T04:47:06.791Z,38.50
2018-04-25T04:49:34.749Z,38.80
2018-04-25T04:52:02.622Z,38.90
2018-04-25T04:54:30.491Z,38.80
2018-04-25T04:56:58.452Z,39.00
2018-04-25T04:59:26.316Z,38.70
2018-04-25T05:01:54.285Z,38.30
2018-04-25T05:04:22.161Z,38.30
2018-04-25T05:06:50.830Z,38.10
2018-04-25T05:09:18.698Z,38.10
2018-04-25T05:11:46.559Z,37.50
2018-04-25T05:14:14.425Z,37.00
2018-04-25T05:16:42.287Z,36.30
2018-04-25T05:19:10.151Z,35.50
2018-04-25T05:21:38.015Z,34.80
2018-04-25T05:24:05.880Z,34.40
2018-04-25T05:26:33.751Z,33.80
2018-04-25T05:29:01.610Z,33.50
2018-04-25T05:31:29.472Z,33.10
2018-04-25T05:33:57.336Z,32.90
2018-04-25T05:36:25.201Z,32.70
2018-04-25T05:38:53.042Z,32.30
2018-04-25T05:41:20.827Z,31.90
2018-04-25T05:43:48.689Z,31.40
2018-04-25T05:46:16.555Z,31.10
2018-04-25T05:48:44.418Z,30.70
2018-04-25T05:51:12.282Z,29.90
2018-04-25T05:53:40.114Z,28.30
2018-04-25T05:56:07.907Z,25.90
2018-04-25T05:58:35.773Z,24.50
2018-04-25T06:01:03.537Z,23.50
2018-04-25T06:03:31.402Z,23.30
2018-04-25T06:05:59.273Z,22.80
2018-04-25T06:08:27.127Z,22.20
2018-04-25T06:10:54.995Z,22.10
2018-04-25T06:13:22.875Z,21.90
2018-04-25T06:15:51.437Z,21.60
2018-04-25T06:18:19.304Z,21.60
2018-04-25T06:20:47.182Z,21.70
2018-04-25T06:23:15.031Z,21.80
2018-04-25T06:25:42.896Z,21.60
2018-04-25T06:28:10.772Z,21.40
2018-04-25T06:30:39.344Z,21.50
2018-04-25T06:33:07.922Z,22.10
2018-04-25T06:35:35.794Z,22.10
2018-04-25T06:38:04.368Z,23.90
2018-04-25T06:40:32.229Z,23.90
2018-04-25T06:43:00.092Z,25.00
2018-04-25T06:45:27.956Z,25.60
2018-04-25T06:47:55.925Z,26.10
2018-04-25T06:50:23.898Z,26.40
2018-04-25T06:52:51.854Z,26.90
2018-04-25T06:55:19.720Z,27.10
2018-04-25T06:57:47.584Z,27.20
2018-04-25T07:00:15.447Z,27.20
2018-04-25T07:02:43.311Z,27.20
2018-04-25T07:05:11.176Z,26.90
2018-04-25T07:07:39.007Z,26.70
2018-04-25T07:10:06.802Z,26.80
2018-04-25T07:12:34.663Z,26.70
2018-04-25T07:15:02.528Z,26.70
2018-04-25T07:17:30.393Z,26.70
2018-04-25T07:19:58.260Z,26.80
2018-04-25T07:22:26.122Z,26.70
2018-04-25T07:24:53.992Z,26.50
2018-04-25T07:27:21.853Z,26.70
2018-04-25T07:29:49.711Z,26.60
2018-04-25T07:32:17.576Z,26.60
2018-04-25T07:34:45.412Z,26.70
2018-04-25T07:37:13.205Z,26.60
2018-04-25T07:39:41.080Z,26.60
2018-04-25T07:42:08.934Z,26.30
2018-04-25T07:44:36.793Z,26.30
2018-04-25T07:47:04.659Z,26.60
2018-04-25T07:49:32.527Z,26.50
2018-04-25T07:52:00.487Z,26.60
2018-04-25T07:54:28.359Z,27.40
2018-04-25T07:56:56.212Z,27.10
2018-04-25T07:59:24.077Z,27.10
2018-04-25T08:01:52.043Z,27.30
2018-04-25T08:04:19.914Z,27.50
2018-04-25T08:06:47.772Z,27.70
2018-04-25T08:09:15.553Z,27.90
2018-04-25T08:11:43.414Z,27.60
2018-04-25T08:14:23.956Z,27.90
2018-04-25T08:30:21.183Z,28.10
2018-04-25T08:32:49.024Z,28.20
2018-04-25T08:35:16.915Z,28.20
2018-04-25T08:37:44.774Z,28.30
2018-04-25T08:40:12.638Z,28.40
2018-04-25T08:42:40.503Z,28.40
2018-04-25T08:45:08.435Z,28.40
2018-04-25T08:47:36.234Z,28.40
2018-04-25T08:50:04.109Z,27.80
2018-04-25T08:52:32.780Z,27.80
2018-04-25T08:55:00.643Z,28.40
2018-04-25T08:57:28.509Z,28.10
2018-04-25T08:59:56.370Z,28.30
2018-04-25T09:02:24.241Z,28.40
2018-04-25T09:04:52.100Z,28.70
2018-04-25T09:07:19.964Z,28.70
2018-04-25T09:09:47.829Z,28.80
2018-04-25T09:12:15.689Z,28.60
2018-04-25T09:14:43.962Z,28.50
2018-04-25T09:17:11.829Z,28.70
2018-04-25T09:19:39.743Z,28.40
2018-04-25T09:22:07.761Z,28.50
2018-04-25T09:24:35.627Z,28.40
2018-04-25T09:27:03.494Z,28.40
2018-04-25T09:29:31.458Z,28.20
2018-04-25T09:31:59.323Z,28.30
2018-04-25T09:34:27.199Z,28.30
2018-04-25T09:36:55.255Z,28.40
2018-04-25T09:39:23.122Z,28.50
2018-04-25T09:41:50.948Z,28.50
2018-04-25T09:44:18.850Z,28.30
2018-04-25T09:46:46.711Z,28.10
2018-04-25T09:49:14.576Z,28.00
2018-04-25T09:51:42.474Z,27.90
2018-04-25T09:54:11.127Z,27.70
2018-04-25T09:56:39.301Z,27.70
2018-04-25T09:59:07.168Z,27.80
2018-04-25T10:01:35.026Z,27.80
2018-04-25T10:04:02.971Z,28.00
2018-04-25T10:06:30.857Z,27.80
2018-04-25T10:08:58.717Z,27.60
2018-04-25T10:11:26.582Z,27.70
2018-04-25T10:13:54.446Z,27.70
2018-04-25T10:16:22.313Z,27.50
2018-04-25T10:18:50.485Z,27.50
2018-04-25T10:21:18.377Z,27.50
2018-04-25T10:23:47.030Z,27.50
2018-04-25T10:26:14.867Z,27.50
2018-04-25T10:28:42.760Z,27.40
2018-04-25T10:31:10.624Z,27.60
2018-04-25T10:33:38.489Z,27.40
2018-04-25T10:36:06.457Z,27.40
2018-04-25T10:38:34.321Z,27.50
2018-04-25T10:41:02.181Z,27.50
2018-04-25T10:43:30.045Z,27.40
2018-04-25T10:45:57.907Z,27.30
2018-04-25T10:48:25.774Z,27.20
2018-04-25T10:50:53.655Z,27.10
2018-04-25T10:53:21.508Z,27.30
2018-04-25T10:55:49.365Z,27.40
2018-04-25T10:58:17.228Z,27.50
2018-04-25T11:00:45.093Z,27.50
2018-04-25T11:03:12.924Z,27.70
2018-04-25T11:05:40.824Z,27.60
2018-04-25T11:08:08.687Z,27.40
2018-04-25T11:10:36.550Z,27.30
2018-04-25T11:13:05.232Z,27.20
2018-04-25T11:15:33.200Z,27.20
2018-04-25T11:18:01.269Z,27.10
2018-04-25T11:20:29.155Z,27.10
2018-04-25T11:22:56.996Z,27.10
2018-04-25T11:25:24.823Z,27.10
2018-04-25T11:27:52.724Z,27.10
2018-04-25T11:30:20.589Z,27.10
2018-04-25T11:32:48.452Z,27.10
2018-04-25T11:35:16.315Z,27.10
2018-04-25T11:37:44.180Z,27.10
2018-04-25T11:40:12.045Z,27.10
2018-04-25T11:42:39.909Z,27.10
2018-04-25T11:45:07.773Z,27.10
2018-04-25T11:47:35.637Z,27.10
2018-04-25T11:50:04.320Z,27.00
2018-04-25T11:52:32.188Z,27.00
2018-04-25T11:55:00.049Z,27.60
2018-04-25T11:57:27.913Z,27.10
2018-04-25T11:59:55.777Z,27.60
2018-04-25T12:02:23.641Z,27.10
2018-04-25T12:04:51.554Z,27.00
2018-04-25T12:07:19.473Z,27.10
2018-04-25T12:09:47.317Z,27.10
2018-04-25T12:12:15.224Z,27.10
2018-04-25T12:14:43.885Z,27.10
2018-04-25T12:17:11.751Z,27.10
2018-04-25T12:19:39.612Z,27.10
2018-04-25T12:22:07.376Z,27.10
2018-04-25T12:24:35.241Z,27.00
2018-04-25T12:27:03.178Z,27.20
2018-04-25T12:29:31.072Z,27.10
2018-04-25T12:31:59.038Z,27.10
2018-04-25T12:34:27.111Z,27.10
2018-04-25T12:36:54.983Z,27.10
2018-04-25T12:39:22.795Z,27.10
2018-04-25T12:41:50.823Z,27.10
2018-04-25T12:44:18.664Z,27.10
2018-04-25T12:46:46.528Z,27.30
2018-04-25T12:49:14.391Z,27.10
2018-04-25T12:51:42.256Z,27.00
2018-04-25T12:54:10.124Z,26.80
2018-04-25T12:56:37.985Z,26.70
2018-04-25T12:59:06.462Z,26.80
2018-04-25T13:01:34.368Z,26.90
2018-04-25T13:04:02.295Z,26.90
2018-04-25T13:06:30.163Z,27.00
2018-04-25T13:08:58.051Z,27.10
2018-04-25T13:11:26.707Z,27.30
2018-04-25T13:13:54.568Z,27.30
2018-04-25T13:16:22.452Z,27.30
2018-04-25T13:18:50.299Z,27.40
2018-04-25T13:21:18.177Z,27.40
2018-04-25T13:23:46.027Z,27.60
2018-04-25T13:26:13.890Z,27.40
2018-04-25T13:28:41.754Z,27.20
2018-04-25T13:31:10.359Z,27.10
2018-04-25T13:33:38.304Z,27.10
2018-04-25T13:36:06.166Z,27.10
2018-04-25T13:38:34.444Z,27.20
2018-04-25T13:41:02.305Z,27.30
2018-04-25T13:43:30.269Z,27.50
2018-04-25T13:45:58.133Z,27.60
2018-04-25T13:48:25.998Z,27.60
2018-04-25T13:50:53.871Z,27.70
2018-04-25T13:53:21.726Z,27.70
2018-04-25T13:55:49.591Z,27.70
2018-04-25T13:58:17.356Z,27.70
2018-04-25T14:00:45.236Z,27.80
2018-04-25T14:03:13.931Z,27.90
2018-04-25T14:05:42.586Z,27.70
2018-04-25T14:08:10.461Z,27.70
2018-04-25T14:10:38.419Z,27.70
2018-04-25T14:13:06.302Z,27.80
2018-04-25T14:15:34.110Z,28.00
2018-04-25T14:18:02.007Z,28.10
2018-04-25T14:20:29.878Z,28.20
2018-04-25T14:22:57.735Z,28.20
2018-04-25T14:25:25.600Z,28.20
2018-04-25T14:27:53.465Z,28.30
2018-04-25T14:30:21.375Z,28.40
2018-04-25T14:32:49.260Z,28.60
2018-04-25T14:35:18.318Z,28.70
2018-04-25T14:37:46.967Z,29.10
2018-04-25T14:40:15.676Z,29.00
2018-04-25T14:42:43.516Z,29.30
2018-04-25T14:45:11.437Z,29.80
2018-04-25T14:47:39.348Z,29.70
2018-04-25T14:50:07.211Z,29.70
2018-04-25T14:52:35.078Z,29.90
2018-04-25T14:55:02.943Z,30.00
2018-04-25T14:57:30.769Z,30.10
2018-04-25T14:59:58.567Z,30.40
2018-04-25T15:02:26.434Z,30.60
2018-04-25T15:04:54.293Z,30.50
2018-04-25T15:07:22.157Z,30.60
2018-04-25T15:09:51.494Z,30.70
2018-04-25T15:12:20.143Z,31.40
2018-04-25T15:14:48.111Z,32.00
2018-04-25T15:17:15.971Z,32.10
2018-04-25T15:19:43.842Z,33.40
2018-04-25T15:22:11.699Z,34.10
2018-04-25T15:24:40.485Z,33.70
2018-04-25T15:27:08.348Z,33.40
2018-04-25T15:29:36.212Z,33.40
2018-04-25T15:32:04.694Z,33.10
2018-04-25T15:34:32.555Z,32.90
2018-04-25T15:37:00.421Z,32.80
2018-04-25T15:39:28.282Z,32.70
2018-04-25T15:41:56.147Z,32.80
2018-04-25T15:44:24.010Z,33.00
2018-04-25T15:46:52.778Z,33.20
2018-04-25T15:49:20.558Z,33.30
2018-04-25T15:51:49.141Z,33.30
2018-04-25T15:54:17.944Z,33.70
2018-04-25T15:56:46.776Z,33.70
2018-04-25T15:59:14.574Z,33.90
2018-04-25T16:01:42.446Z,34.00
2018-04-25T16:04:10.476Z,34.00
2018-04-25T16:06:38.374Z,34.00
2018-04-25T16:09:06.446Z,34.10
2018-04-25T16:11:35.368Z,34.00
2018-04-25T16:14:03.923Z,34.70
2018-04-25T16:16:31.879Z,34.60
2018-04-25T16:18:59.742Z,34.50
2018-04-25T16:21:27.617Z,34.60
2018-04-25T16:23:57.204Z,34.80
2018-04-25T16:26:25.076Z,34.80
2018-04-25T16:28:52.908Z,34.80
2018-04-25T16:31:20.828Z,34.80
2018-04-25T16:33:48.667Z,34.80
2018-04-25T16:36:16.539Z,34.80
2018-04-25T16:38:44.400Z,34.90
2018-04-25T16:41:12.608Z,34.80
2018-04-25T16:43:41.253Z,34.80
2018-04-25T16:46:09.122Z,34.80
2018-04-25T16:48:36.982Z,34.80
2018-04-25T16:51:04.853Z,34.80
2018-04-25T16:53:32.911Z,34.80
2018-04-25T16:56:00.740Z,34.80
2018-04-25T16:58:28.538Z,34.70
2018-04-25T17:00:56.400Z,34.80
2018-04-25T17:03:25.200Z,35.00
2018-04-25T17:05:53.055Z,35.00
2018-04-25T17:08:20.916Z,35.00
2018-04-25T17:10:48.747Z,35.10
2018-04-25T17:13:16.649Z,35.20
2018-04-25T17:15:44.509Z,35.30
2018-04-25T17:18:12.372Z,35.40
2018-04-25T17:20:40.249Z,35.20
2018-04-25T17:23:08.102Z,35.30
2018-04-25T17:25:36.078Z,35.90
2018-04-25T17:28:03.934Z,35.40
2018-04-25T17:30:31.800Z,35.40
2018-04-25T17:32:59.668Z,35.40
2018-04-25T17:35:27.532Z,35.50
2018-04-25T17:38:03.229Z,35.40
2018-04-25T17:40:31.033Z,35.40
2018-04-25T17:42:59.309Z,35.40
2018-04-25T17:45:27.188Z,35.50
2018-04-25T17:48:04.653Z,35.40
2018-04-25T17:50:32.526Z,35.40
2018-04-25T17:53:00.391Z,35.50
2018-04-25T17:55:28.280Z,35.60
2018-04-25T17:57:56.942Z,35.40
2018-04-25T18:00:24.904Z,35.40
2018-04-25T18:02:52.731Z,35.40
2018-04-25T18:05:20.632Z,35.40
2018-04-25T18:07:48.496Z,35.60
2018-04-25T18:10:16.565Z,35.70
2018-04-25T18:12:44.429Z,35.70
2018-04-25T18:15:12.294Z,35.70
2018-04-25T18:17:40.159Z,35.90
2018-04-25T18:20:08.022Z,36.00
2018-04-25T18:22:35.896Z,36.00
2018-04-25T18:25:03.861Z,36.00
2018-04-25T18:27:31.685Z,36.10
2018-04-25T18:29:59.549Z,36.30
2018-04-25T18:32:27.456Z,36.30
2018-04-25T18:34:55.209Z,37.70
2018-04-25T18:37:23.081Z,36.80
2018-04-25T18:39:51.758Z,39.70
2018-04-25T18:42:19.619Z,39.70
2018-04-25T18:44:47.484Z,40.40
2018-04-25T18:47:15.348Z,40.70
2018-04-25T18:49:43.179Z,40.80
2018-04-25T18:52:10.974Z,41.60
2018-04-25T18:54:38.843Z,41.60
2018-04-25T18:57:06.601Z,42.10
2018-04-25T18:59:34.463Z,42.30
2018-04-25T19:02:02.328Z,42.90
2018-04-25T19:04:30.192Z,43.30
2018-04-25T19:06:58.055Z,44.00
2018-04-25T19:09:25.924Z,45.10
2018-04-25T19:11:53.784Z,45.20
2018-04-25T19:14:21.617Z,46.70
2018-04-25T19:16:49.514Z,46.10
2018-04-25T19:19:17.377Z,46.90
2018-04-25T19:21:46.058Z,46.90
2018-04-25T19:24:13.924Z,47.30
2018-04-25T19:26:41.758Z,47.40
2018-04-25T19:29:09.549Z,48.80
2018-04-25T19:31:37.414Z,48.30
2018-04-25T19:34:05.281Z,48.90
2018-04-25T19:36:34.085Z,50.00
2018-04-25T19:39:02.670Z,50.60
2018-04-25T19:41:31.784Z,50.90
2018-04-25T19:44:00.420Z,50.70
2018-04-25T19:46:28.283Z,50.70
2018-04-25T19:48:56.153Z,50.50
2018-04-25T19:51:24.023Z,50.60
2018-04-25T19:53:51.879Z,50.70
2018-04-25T19:56:19.739Z,51.20
2018-04-25T19:58:48.221Z,51.40
2018-04-25T20:01:16.083Z,52.10
2018-04-25T20:03:43.951Z,52.60
2018-04-25T20:06:11.793Z,53.50
2018-04-25T20:08:40.602Z,53.90
2018-04-25T20:11:08.468Z,54.50
2018-04-25T20:13:36.326Z,54.80
2018-04-25T20:16:04.400Z,55.30
2018-04-25T20:18:32.261Z,55.30
2018-04-25T20:21:00.137Z,55.40
2018-04-25T20:23:28.096Z,56.00
2018-04-25T20:25:55.962Z,56.10
2018-04-25T20:28:23.921Z,56.30
2018-04-25T20:30:51.790Z,56.70
2018-04-25T20:33:19.616Z,56.70
2018-04-25T20:35:47.411Z,57.20
2018-04-25T20:38:15.263Z,57.10
2018-04-25T20:40:43.008Z,57.40
2018-04-25T20:43:10.739Z,57.60
2018-04-25T20:45:38.574Z,58.30
2018-04-25T20:48:06.322Z,58.10
2018-04-25T20:50:34.080Z,58.30
2018-04-25T20:53:02.840Z,58.50
2018-04-25T20:55:30.635Z,58.50
2018-04-25T20:57:58.498Z,59.30
2018-04-25T21:00:26.285Z,58.80
2018-04-25T21:02:54.023Z,58.90
2018-04-25T21:05:21.760Z,59.10
2018-04-25T21:07:49.553Z,59.40
2018-04-25T21:10:17.285Z,59.20
2018-04-25T21:12:45.017Z,59.40
2018-04-25T21:15:12.808Z,59.50
2018-04-25T21:17:40.562Z,59.60
2018-04-25T21:20:08.315Z,59.80
2018-04-25T21:22:36.105Z,59.50
2018-04-25T21:25:03.878Z,59.30
2018-04-25T21:27:31.616Z,59.80
2018-04-25T21:29:59.433Z,60.00
2018-04-25T21:32:27.176Z,60.10
2018-04-25T21:34:54.900Z,59.80
2018-04-25T21:37:22.698Z,60.10
2018-04-25T21:39:50.540Z,59.70
2018-04-25T21:42:18.279Z,60.80
2018-04-25T21:44:46.064Z,60.20
2018-04-25T21:47:13.819Z,59.90
2018-04-25T21:49:41.572Z,60.00
2018-04-25T21:52:09.516Z,59.90
2018-04-25T21:54:37.268Z,60.00
2018-04-25T21:57:05.085Z,59.90
2018-04-25T21:59:32.878Z,59.70
2018-04-25T22:02:00.637Z,60.10
2018-04-25T22:04:28.371Z,59.20
2018-04-25T22:06:56.155Z,59.10
2018-04-25T22:09:24.368Z,59.90
2018-04-25T22:12:00.911Z,62.70
2018-04-25T22:14:38.512Z,62.80
2018-04-25T22:17:13.614Z,63.70
2018-04-25T22:19:47.856Z,63.60
2018-04-25T22:22:26.647Z,64.50
2018-04-25T22:25:03.614Z,64.50
2018-04-25T22:27:40.449Z,66.20
2018-04-25T22:30:14.398Z,67.10
2018-04-25T22:32:50.058Z,67.40
2018-04-25T22:35:18.627Z,68.50
2018-04-25T22:37:46.487Z,68.50
2018-04-25T22:40:14.450Z,70.50
2018-04-25T22:42:42.213Z,69.60
2018-04-25T22:45:10.076Z,69.40
2018-04-25T22:47:37.942Z,69.70
2018-04-25T22:50:05.777Z,69.20
2018-04-25T22:52:33.568Z,69.50
2018-04-25T22:55:01.433Z,69.10
2018-04-25T22:57:29.292Z,68.60
2018-04-25T22:59:57.157Z,68.60
2018-04-25T23:02:25.022Z,68.50
2018-04-25T23:04:52.887Z,68.20
2018-04-25T23:07:20.751Z,68.40
2018-04-25T23:09:48.617Z,67.60
2018-04-25T23:12:16.479Z,68.00
2018-04-25T23:14:44.349Z,67.70
2018-04-25T23:17:12.207Z,68.30
2018-04-25T23:19:40.076Z,67.00
2018-04-25T23:22:07.813Z,67.30
2018-04-25T23:24:35.598Z,67.20
2018-04-25T23:27:03.337Z,66.50
2018-04-25T23:29:31.107Z,66.90
2018-04-25T23:31:58.899Z,66.80
2018-04-25T23:34:26.744Z,67.20
2018-04-25T23:36:54.610Z,66.30
2018-04-25T23:39:22.481Z,67.00
2018-04-25T23:41:50.337Z,67.00
2018-04-25T23:44:18.100Z,66.90
2018-04-25T23:46:45.962Z,66.20
2018-04-25T23:49:13.831Z,66.00
2018-04-25T23:51:42.576Z,66.20
2018-04-25T23:54:10.554Z,65.80
2018-04-25T23:56:38.340Z,65.70
2018-04-25T23:59:06.926Z,64.80
